Time;durP1;ratioP1;P1;durP2;ratioP2;P2;SDS_P1;SDS_P2;PMS_P1;PMS_P2;Temp;Humidity;BMP_temperature;BMP_pressure;BME280_temperature;BME280_humidity;BME280_pressure;Samples;Min_cycle;Max_cycle;Signal;HPM_P1;HPM_P2
2022/06/22 00:02:10;;;;;;;2.30;0.85;;;13.20;99.90;;;;;;5033403;28;20195;-88
2022/06/22 00:04:50;;;;;;;3.67;1.30;;;13.30;99.90;;;;;;5033325;28;20195;-84
2022/06/22 00:07:26;;;;;;;1.52;0.80;;;13.40;99.90;;;;;;5033840;28;20555;-80
2022/06/22 00:10:01;;;;;;;2.20;0.75;;;13.40;99.90;;;;;;5031887;28;20581;-81
2022/06/22 00:12:33;;;;;;;1.80;0.80;;;13.50;99.90;;;;;;5029770;28;20204;-83
2022/06/22 00:15:06;;;;;;;3.55;1.00;;;13.60;99.90;;;;;;5030230;28;20193;-82
2022/06/22 00:17:39;;;;;;;1.00;0.68;;;13.80;99.90;;;;;;5033646;28;20190;-83
2022/06/22 00:20:16;;;;;;;1.05;0.70;;;13.90;99.90;;;;;;5031317;28;20186;-84
2022/06/22 00:22:52;;;;;;;4.15;0.80;;;14.00;99.90;;;;;;5032925;28;20193;-83
2022/06/22 00:25:37;;;;;;;1.70;0.90;;;14.00;99.90;;;;;;5033485;28;20637;-83
2022/06/22 00:28:29;;;;;;;2.45;1.10;;;14.10;99.90;;;;;;5032198;28;20194;-81
2022/06/22 00:31:05;;;;;;;1.65;0.88;;;14.10;99.90;;;;;;5022364;28;20226;-84
2022/06/22 00:33:36;;;;;;;1.95;0.95;;;14.10;99.90;;;;;;5029080;28;20229;-75
2022/06/22 00:36:21;;;;;;;3.28;2.03;;;14.30;99.90;;;;;;5032237;28;20195;-76
2022/06/22 00:38:51;;;;;;;19.58;11.65;;;14.40;99.90;;;;;;5031401;28;20202;-76
2022/06/22 00:41:26;;;;;;;11.35;6.68;;;14.40;99.90;;;;;;5026628;28;20194;-76
2022/06/22 00:43:57;;;;;;;3.50;2.33;;;14.50;99.90;;;;;;5031485;28;20247;-74
2022/06/22 00:46:28;;;;;;;5.03;2.13;;;14.60;99.90;;;;;;5028380;28;20232;-77
2022/06/22 00:48:59;;;;;;;4.45;1.92;;;14.60;99.90;;;;;;5030483;28;20657;-77
2022/06/22 00:51:34;;;;;;;4.15;1.77;;;14.70;99.90;;;;;;5029340;28;20222;-75
2022/06/22 00:54:06;;;;;;;1.42;1.00;;;14.80;99.90;;;;;;5031751;28;20229;-75
2022/06/22 00:56:48;;;;;;;1.25;0.77;;;14.90;99.90;;;;;;5032210;28;20194;-75
2022/06/22 00:59:25;;;;;;;1.13;0.88;;;15.00;99.90;;;;;;5031485;28;20229;-75
2022/06/22 01:01:58;;;;;;;1.98;0.90;;;15.10;99.90;;;;;;5032014;28;20207;-75
2022/06/22 01:04:33;;;;;;;1.50;0.63;;;15.10;99.90;;;;;;5032777;28;20206;-74
2022/06/22 01:07:10;;;;;;;2.30;0.80;;;15.10;99.90;;;;;;5030652;28;20194;-75
2022/06/22 01:09:46;;;;;;;2.55;0.70;;;15.20;99.90;;;;;;5026470;28;20572;-74
2022/06/22 01:12:25;;;;;;;9.77;7.70;;;15.30;99.90;;;;;;5025607;28;20294;-77
2022/06/22 01:15:20;;;;;;;3.13;2.05;;;15.30;99.90;;;;;;5030588;28;20201;-77
2022/06/22 01:17:59;;;;;;;14.10;9.18;;;15.40;99.90;;;;;;5026410;28;20213;-75
2022/06/22 01:20:37;;;;;;;7.45;5.07;;;15.50;99.90;;;;;;5032944;28;20245;-78
2022/06/22 01:23:45;;;;;;;7.07;4.57;;;15.70;99.90;;;;;;5031048;28;20224;-76
2022/06/22 01:26:44;;;;;;;3.90;3.17;;;15.90;99.90;;;;;;5029888;28;20233;-76
2022/06/22 01:29:19;;;;;;;1.80;1.23;;;15.90;99.90;;;;;;5026807;28;20676;-75
2022/06/22 01:31:59;;;;;;;3.05;0.90;;;16.00;99.90;;;;;;5030644;28;20218;-76
2022/06/22 01:34:36;;;;;;;3.70;1.10;;;16.10;99.90;;;;;;5029231;28;20656;-74
2022/06/22 01:37:08;;;;;;;4.68;0.90;;;16.10;99.90;;;;;;5029777;28;20198;-76
2022/06/22 01:39:39;;;;;;;0.95;0.60;;;16.10;99.90;;;;;;5030985;28;20680;-75
2022/06/22 01:42:21;;;;;;;1.30;0.55;;;16.20;99.90;;;;;;5031190;28;20197;-74
2022/06/22 01:44:59;;;;;;;2.05;0.50;;;16.30;99.90;;;;;;5032064;28;20209;-74
2022/06/22 01:47:37;;;;;;;3.65;0.63;;;16.40;99.90;;;;;;5031302;28;20225;-75
2022/06/22 01:50:20;;;;;;;2.10;0.80;;;16.40;99.90;;;;;;5031711;28;20197;-73
2022/06/22 01:53:06;;;;;;;3.35;2.13;;;16.30;99.90;;;;;;5025707;28;20641;-75
2022/06/22 01:55:44;;;;;;;2.38;1.50;;;16.20;99.90;;;;;;5031761;28;20190;-74
2022/06/22 01:58:38;;;;;;;1.55;0.90;;;16.10;99.90;;;;;;5031527;28;20214;-75
2022/06/22 02:01:18;;;;;;;3.17;1.10;;;16.10;99.90;;;;;;5032427;28;20195;-74
2022/06/22 02:03:56;;;;;;;1.67;0.75;;;16.30;99.90;;;;;;5026636;28;20205;-77
2022/06/22 02:09:28;;;;;;;1.17;0.77;;;16.50;99.90;;;;;;5032058;28;20197;-75
2022/06/22 02:14:47;;;;;;;1.80;0.77;;;16.60;99.90;;;;;;5031464;28;20209;-73
2022/06/22 02:17:24;;;;;;;3.72;1.25;;;16.60;99.90;;;;;;5036069;28;20190;-75
2022/06/22 02:20:32;;;;;;;3.67;0.70;;;16.50;99.90;;;;;;5033626;28;20190;-74
2022/06/22 02:23:11;;;;;;;1.45;0.55;;;16.50;99.90;;;;;;5037023;28;20248;-76
2022/06/22 02:25:47;;;;;;;0.60;0.47;;;16.40;99.90;;;;;;5035737;28;20221;-77
2022/06/22 02:28:17;;;;;;;0.82;0.70;;;16.30;99.90;;;;;;5035559;28;20205;-76
2022/06/22 02:30:48;;;;;;;1.33;0.60;;;16.30;99.90;;;;;;5032887;28;20210;-74
2022/06/22 02:33:22;;;;;;;1.58;0.60;;;16.30;99.90;;;;;;5035815;28;20191;-73
2022/06/22 02:35:54;;;;;;;1.95;0.68;;;16.20;99.90;;;;;;5033576;28;20202;-75
2022/06/22 02:38:25;;;;;;;2.97;1.08;;;16.10;99.90;;;;;;5033799;28;20202;-77
2022/06/22 02:46:37;;;;;;;1.77;0.60;;;16.20;99.90;;;;;;5032609;28;20650;-75
2022/06/22 02:49:19;;;;;;;1.42;0.60;;;16.20;99.90;;;;;;5029549;28;20215;-74
2022/06/22 02:51:51;;;;;;;1.30;0.52;;;16.40;99.90;;;;;;5025167;28;20701;-77
2022/06/22 02:54:31;;;;;;;1.05;0.52;;;16.60;99.90;;;;;;5029978;28;20203;-74
2022/06/22 02:57:14;;;;;;;1.90;0.70;;;16.60;99.90;;;;;;5030083;28;20194;-74
2022/06/22 02:59:46;;;;;;;0.98;0.50;;;16.50;99.90;;;;;;5030509;28;20229;-75
2022/06/22 03:02:18;;;;;;;2.88;0.60;;;16.40;99.90;;;;;;5031486;28;20586;-74
2022/06/22 03:04:52;;;;;;;0.60;0.50;;;16.40;99.90;;;;;;5034638;28;20198;-74
2022/06/22 03:07:24;;;;;;;1.00;0.57;;;16.60;99.90;;;;;;5032226;28;20319;-75
2022/06/22 03:09:55;;;;;;;2.03;0.70;;;16.70;99.90;;;;;;5029465;28;20222;-74
2022/06/22 03:12:26;;;;;;;1.50;0.60;;;16.90;99.90;;;;;;5028216;28;20234;-73
2022/06/22 03:15:01;;;;;;;3.80;0.70;;;16.80;99.90;;;;;;5026955;28;20209;-73
2022/06/22 03:17:36;;;;;;;0.60;0.60;;;16.80;99.90;;;;;;5031872;28;20197;-75
2022/06/22 03:20:10;;;;;;;0.80;0.50;;;16.70;99.90;;;;;;5031645;28;20197;-75
2022/06/22 03:22:43;;;;;;;1.30;0.80;;;16.60;99.90;;;;;;5030643;28;20565;-75
2022/06/22 03:25:21;;;;;;;1.33;0.50;;;16.50;99.90;;;;;;5026034;28;20252;-74
2022/06/22 03:27:55;;;;;;;0.43;0.40;;;16.50;99.90;;;;;;5033490;28;20681;-76
2022/06/22 03:30:29;;;;;;;1.70;0.73;;;16.40;99.90;;;;;;5029023;28;20559;-80
2022/06/22 03:33:04;;;;;;;4.00;1.10;;;16.40;99.90;;;;;;5031625;28;20206;-79
2022/06/22 03:35:40;;;;;;;2.10;0.88;;;16.40;99.90;;;;;;5031581;28;20197;-79
2022/06/22 03:38:14;;;;;;;5.25;1.20;;;16.60;99.90;;;;;;5029711;28;20194;-78
2022/06/22 03:40:48;;;;;;;2.35;0.63;;;16.70;99.90;;;;;;5033322;28;20198;-76
2022/06/22 03:43:24;;;;;;;1.35;0.60;;;16.90;99.90;;;;;;5025070;28;20203;-77
2022/06/22 03:45:59;;;;;;;2.78;1.20;;;17.00;99.90;;;;;;5031299;28;20233;-77
2022/06/22 03:48:32;;;;;;;1.58;0.50;;;17.10;99.90;;;;;;5030514;28;20201;-79
2022/06/22 03:51:09;;;;;;;1.40;0.47;;;17.10;99.90;;;;;;5027677;28;20583;-78
2022/06/22 03:53:44;;;;;;;0.80;0.50;;;17.10;99.90;;;;;;5032150;28;20198;-80
2022/06/22 03:56:18;;;;;;;1.02;0.70;;;17.10;99.90;;;;;;5031257;28;20203;-81
2022/06/22 03:58:52;;;;;;;1.75;0.63;;;16.90;99.90;;;;;;5026814;28;20222;-76
2022/06/22 04:01:26;;;;;;;2.38;0.60;;;16.90;99.90;;;;;;5029040;28;20225;-78
2022/06/22 04:03:58;;;;;;;1.00;0.60;;;16.90;99.90;;;;;;5025421;28;20680;-77
2022/06/22 04:06:33;;;;;;;0.70;0.50;;;16.90;99.90;;;;;;5022135;28;20228;-76
2022/06/22 04:09:07;;;;;;;2.35;0.63;;;16.90;99.90;;;;;;5030895;28;20205;-78
2022/06/22 04:11:43;;;;;;;1.15;0.40;;;16.90;99.90;;;;;;5025771;28;20222;-77
2022/06/22 04:14:20;;;;;;;2.50;0.50;;;16.90;99.90;;;;;;5032161;28;20657;-77
2022/06/22 04:16:54;;;;;;;1.02;0.40;;;17.00;99.90;;;;;;5028633;28;20190;-82
2022/06/22 04:19:28;;;;;;;1.67;0.65;;;17.00;99.90;;;;;;5027419;28;20558;-76
2022/06/22 04:22:06;;;;;;;1.52;0.63;;;17.10;99.90;;;;;;5031628;28;20197;-76
2022/06/22 04:24:49;;;;;;;0.95;0.47;;;17.10;99.90;;;;;;5030358;28;20209;-76
2022/06/22 04:27:25;;;;;;;0.50;0.50;;;17.10;99.90;;;;;;5025882;28;22476;-81
2022/06/22 04:30:01;;;;;;;1.70;0.60;;;17.10;99.90;;;;;;5028627;28;20194;-78
2022/06/22 04:32:37;;;;;;;1.30;0.77;;;17.10;99.90;;;;;;5030768;28;20311;-77
2022/06/22 04:35:22;;;;;;;1.95;0.40;;;17.20;99.90;;;;;;5031520;28;20205;-76
2022/06/22 04:38:00;;;;;;;0.98;0.50;;;17.20;99.90;;;;;;5030186;28;20194;-78
2022/06/22 04:40:37;;;;;;;1.33;0.60;;;17.20;99.90;;;;;;5028803;28;20672;-76
2022/06/22 04:43:08;;;;;;;1.30;0.55;;;17.10;99.90;;;;;;5025278;28;20571;-76
2022/06/22 04:45:43;;;;;;;1.23;0.60;;;17.10;99.90;;;;;;5037552;28;20190;-76
2022/06/22 04:48:19;;;;;;;2.20;0.50;;;17.10;99.90;;;;;;5028655;28;20576;-78
2022/06/22 04:50:53;;;;;;;0.82;0.47;;;17.10;99.90;;;;;;5027571;28;20209;-77
2022/06/22 04:53:31;;;;;;;1.33;0.40;;;17.10;99.90;;;;;;5025316;28;20209;-80
2022/06/22 04:56:08;;;;;;;0.47;0.40;;;17.10;99.90;;;;;;5024836;28;20654;-77
2022/06/22 04:58:44;;;;;;;1.88;0.50;;;17.20;99.90;;;;;;5026598;28;20226;-78
2022/06/22 05:01:18;;;;;;;2.67;0.75;;;17.10;99.90;;;;;;5024649;28;20205;-76
2022/06/22 05:03:50;;;;;;;2.92;0.60;;;17.10;99.90;;;;;;5025170;28;20197;-78
2022/06/22 05:06:23;;;;;;;1.75;0.55;;;17.10;99.90;;;;;;5026697;28;20557;-75
2022/06/22 05:09:00;;;;;;;0.88;0.60;;;17.10;99.90;;;;;;5020053;28;20198;-75
2022/06/22 05:11:37;;;;;;;0.50;0.40;;;17.20;99.90;;;;;;5022472;28;20217;-76
2022/06/22 05:14:16;;;;;;;2.00;0.60;;;17.20;99.90;;;;;;5027791;28;20206;-76
2022/06/22 05:16:52;;;;;;;1.00;0.50;;;17.00;99.90;;;;;;5032206;28;20193;-78
2022/06/22 05:19:26;;;;;;;1.10;0.50;;;16.80;99.90;;;;;;5031379;28;20212;-75
2022/06/22 05:22:00;;;;;;;1.77;0.40;;;16.70;99.90;;;;;;5027364;28;20202;-76
2022/06/22 05:24:38;;;;;;;0.82;0.50;;;16.60;99.90;;;;;;5026685;28;20329;-75
2022/06/22 05:27:10;;;;;;;1.40;0.60;;;16.60;99.90;;;;;;5028909;28;20193;-79
2022/06/22 05:29:46;;;;;;;3.08;0.73;;;16.60;99.90;;;;;;5029073;28;20301;-80
2022/06/22 05:32:20;;;;;;;1.52;0.60;;;16.50;99.90;;;;;;5026448;28;20658;-80
2022/06/22 05:34:53;;;;;;;0.73;0.43;;;16.50;99.90;;;;;;5030199;28;20213;-79
2022/06/22 05:37:27;;;;;;;0.40;0.40;;;16.50;99.90;;;;;;5029709;28;20205;-76
2022/06/22 05:40:00;;;;;;;1.40;0.55;;;16.50;99.90;;;;;;5025979;28;20193;-76
2022/06/22 05:42:34;;;;;;;1.27;0.52;;;16.50;99.90;;;;;;5031029;28;20207;-76
2022/06/22 05:45:06;;;;;;;0.60;0.35;;;16.50;99.90;;;;;;5031354;28;20197;-78
2022/06/22 05:47:37;;;;;;;0.60;0.40;;;16.50;99.90;;;;;;5025342;28;20238;-75
2022/06/22 05:50:15;;;;;;;2.22;0.45;;;16.40;99.90;;;;;;5022406;28;20202;-76
2022/06/22 05:52:50;;;;;;;1.58;0.70;;;16.40;99.90;;;;;;5029553;28;20210;-75
2022/06/22 05:55:28;;;;;;;2.08;0.50;;;16.40;99.90;;;;;;5033247;28;20197;-76
2022/06/22 05:58:05;;;;;;;2.67;0.80;;;16.30;99.90;;;;;;5032635;28;20273;-77
2022/06/22 06:00:44;;;;;;;0.95;0.60;;;16.30;99.90;;;;;;5031315;28;20197;-77
2022/06/22 06:03:28;;;;;;;2.42;0.60;;;16.20;99.90;;;;;;5026465;28;20271;-75
2022/06/22 06:06:01;;;;;;;0.60;0.40;;;16.20;99.90;;;;;;5033024;28;20198;-80
2022/06/22 06:08:41;;;;;;;1.45;0.50;;;16.10;99.90;;;;;;5034865;28;20205;-76
2022/06/22 06:11:19;;;;;;;3.92;1.00;;;16.10;99.90;;;;;;5033387;28;20198;-76
2022/06/22 06:13:52;;;;;;;4.05;2.55;;;16.10;99.90;;;;;;5030503;28;20198;-78
2022/06/22 06:16:26;;;;;;;3.72;1.40;;;16.00;99.90;;;;;;5033718;28;20205;-75
2022/06/22 06:19:01;;;;;;;2.55;0.75;;;15.90;99.90;;;;;;5031648;28;20229;-78
2022/06/22 06:21:36;;;;;;;1.42;0.85;;;15.90;99.90;;;;;;5028321;28;20201;-78
2022/06/22 06:24:13;;;;;;;0.75;0.70;;;15.80;99.90;;;;;;5032112;28;20571;-77
2022/06/22 06:29:40;;;;;;;2.58;1.00;;;15.60;99.90;;;;;;5033647;28;20201;-78
2022/06/22 06:32:37;;;;;;;3.47;0.77;;;15.50;99.90;;;;;;5027144;28;20216;-77
2022/06/22 06:35:15;;;;;;;1.65;1.13;;;15.50;99.90;;;;;;5030788;28;20209;-76
2022/06/22 06:37:51;;;;;;;1.60;1.10;;;15.40;99.90;;;;;;5024296;28;20203;-76
2022/06/22 06:40:27;;;;;;;2.15;1.75;;;15.30;99.90;;;;;;5033483;28;20660;-77
2022/06/22 06:43:14;;;;;;;1.45;1.30;;;15.20;99.90;;;;;;5029647;28;20209;-78
2022/06/22 06:45:45;;;;;;;1.98;1.25;;;15.10;99.90;;;;;;5031871;28;20317;-78
2022/06/22 06:48:23;;;;;;;2.35;0.98;;;15.00;99.90;;;;;;5033545;28;20202;-78
2022/06/22 06:50:56;;;;;;;1.75;1.00;;;14.90;99.90;;;;;;5031910;28;20650;-77
2022/06/22 06:53:33;;;;;;;5.05;0.90;;;14.70;99.90;;;;;;5031340;28;20218;-76
2022/06/22 06:56:07;;;;;;;2.72;0.75;;;14.60;99.90;;;;;;5031492;28;20198;-75
2022/06/22 06:58:45;;;;;;;2.17;0.90;;;14.50;99.90;;;;;;5031215;28;20218;-79
2022/06/22 07:01:22;;;;;;;4.03;0.90;;;14.40;99.90;;;;;;5033665;28;20703;-82
2022/06/22 07:03:58;;;;;;;1.63;0.90;;;14.30;99.90;;;;;;5029569;28;20205;-80
2022/06/22 07:06:30;;;;;;;3.95;1.13;;;14.20;99.90;;;;;;5029155;28;20708;-76
2022/06/22 07:09:03;;;;;;;2.47;1.08;;;14.10;99.90;;;;;;5025600;28;20201;-75
2022/06/22 07:11:40;;;;;;;2.03;1.20;;;14.10;99.90;;;;;;5030490;28;20654;-77
2022/06/22 07:14:19;;;;;;;3.53;1.30;;;14.00;99.90;;;;;;5032679;28;20202;-78
2022/06/22 07:16:52;;;;;;;1.58;1.20;;;13.90;99.90;;;;;;5032765;28;20194;-77
2022/06/22 07:19:26;;;;;;;2.72;1.48;;;13.90;99.90;;;;;;5030171;28;20570;-75
2022/06/22 07:22:02;;;;;;;2.60;1.65;;;13.90;99.90;;;;;;5029751;28;20198;-77
2022/06/22 07:24:36;;;;;;;2.88;1.70;;;13.80;99.90;;;;;;5030572;28;20654;-80
2022/06/22 07:27:12;;;;;;;4.00;1.75;;;13.70;99.90;;;;;;5033466;28;20248;-76
2022/06/22 07:29:50;;;;;;;2.83;1.50;;;13.70;99.90;;;;;;5028755;28;20202;-78
2022/06/22 07:32:26;;;;;;;3.55;1.90;;;13.60;99.90;;;;;;5030325;28;20214;-82
2022/06/22 07:35:06;;;;;;;3.42;1.83;;;13.60;99.90;;;;;;5022855;28;20225;-77
2022/06/22 07:37:41;;;;;;;3.33;2.20;;;13.50;99.90;;;;;;5028831;28;20198;-75
2022/06/22 07:40:16;;;;;;;6.35;1.98;;;13.50;99.90;;;;;;5028877;28;20201;-78
2022/06/22 07:42:51;;;;;;;5.07;1.95;;;13.40;99.90;;;;;;5025212;28;20209;-77
2022/06/22 07:45:26;;;;;;;5.95;1.90;;;13.30;99.90;;;;;;5027704;28;20546;-84
2022/06/22 07:48:02;;;;;;;4.70;2.05;;;13.30;99.90;;;;;;5032215;28;20194;-75
2022/06/22 07:50:35;;;;;;;4.97;2.20;;;13.30;99.90;;;;;;5025806;28;20201;-80
2022/06/22 07:53:16;;;;;;;4.32;2.08;;;13.20;99.90;;;;;;5026118;28;20218;-76
2022/06/22 07:55:53;;;;;;;7.75;2.40;;;13.20;99.90;;;;;;5026030;28;20199;-76
2022/06/22 07:58:32;;;;;;;6.20;2.22;;;13.20;99.90;;;;;;5029758;28;20586;-77
2022/06/22 08:01:08;;;;;;;7.20;2.70;;;13.20;99.90;;;;;;5022765;28;20197;-75
2022/06/22 08:03:43;;;;;;;3.38;2.13;;;13.30;99.90;;;;;;5029666;28;20208;-78
2022/06/22 08:06:19;;;;;;;7.20;2.50;;;13.10;99.90;;;;;;5020693;28;20547;-80
2022/06/22 08:08:56;;;;;;;6.72;2.70;;;13.10;99.90;;;;;;5022588;28;20667;-78
2022/06/22 08:11:33;;;;;;;5.97;2.80;;;13.10;99.90;;;;;;5027816;28;20221;-78
2022/06/22 08:14:09;;;;;;;6.90;3.90;;;13.00;99.90;;;;;;5027615;28;20218;-76
2022/06/22 08:16:46;;;;;;;8.68;4.35;;;12.90;99.90;;;;;;5026612;28;20277;-75
2022/06/22 08:19:17;;;;;;;7.65;4.25;;;12.80;99.90;;;;;;5031517;28;20210;-81
2022/06/22 08:21:50;;;;;;;8.68;3.80;;;12.80;99.90;;;;;;5025681;28;20375;-78
2022/06/22 08:24:22;;;;;;;10.35;4.35;;;12.80;99.90;;;;;;5026904;28;20198;-77
2022/06/22 08:26:56;;;;;;;12.75;4.63;;;12.80;99.90;;;;;;5022815;28;20550;-78
2022/06/22 08:29:27;;;;;;;8.88;4.00;;;12.70;99.90;;;;;;5025667;28;20210;-79
2022/06/22 08:32:04;;;;;;;8.45;4.05;;;12.70;99.90;;;;;;5030605;28;20198;-77
2022/06/22 08:34:38;;;;;;;9.20;3.78;;;12.80;99.90;;;;;;5028502;28;20197;-77
2022/06/22 08:37:15;;;;;;;6.65;3.58;;;12.70;99.90;;;;;;5027878;28;20727;-78
2022/06/22 08:39:52;;;;;;;10.80;3.72;;;12.80;99.90;;;;;;5029655;28;20204;-81
2022/06/22 08:42:43;;;;;;;6.40;3.20;;;12.70;99.90;;;;;;5025799;28;20280;-86
2022/06/22 08:45:29;;;;;;;8.98;3.10;;;12.70;99.90;;;;;;5029569;28;20217;-76
2022/06/22 08:48:24;;;;;;;6.53;2.95;;;12.70;99.90;;;;;;5028824;28;20208;-74
2022/06/22 08:51:18;;;;;;;9.60;2.83;;;12.60;99.90;;;;;;5022926;28;20203;-75
2022/06/22 08:54:14;;;;;;;5.43;2.90;;;12.50;99.90;;;;;;5028332;28;20226;-77
2022/06/22 08:56:52;;;;;;;8.38;3.10;;;12.50;99.90;;;;;;5022432;28;20593;-75
2022/06/22 08:59:56;;;;;;;5.10;3.10;;;12.50;99.90;;;;;;5027970;28;20230;-74
2022/06/22 09:02:58;;;;;;;6.13;3.00;;;12.50;99.90;;;;;;5019505;28;20198;-75
2022/06/22 09:05:51;;;;;;;6.40;3.03;;;12.40;99.90;;;;;;5016730;28;20201;-78
2022/06/22 09:09:03;;;;;;;5.55;2.90;;;12.50;99.90;;;;;;5030867;28;20190;-75
2022/06/22 09:11:36;;;;;;;8.27;3.20;;;12.40;99.90;;;;;;4934194;29;20211;-79
2022/06/22 09:14:52;;;;;;;6.05;2.92;;;12.40;99.90;;;;;;5017773;28;20222;-75
2022/06/22 09:17:39;;;;;;;5.90;3.28;;;12.40;99.90;;;;;;5031774;28;20202;-75
2022/06/22 09:20:28;;;;;;;7.03;3.20;;;12.30;99.90;;;;;;5026568;28;20201;-75
2022/06/22 09:23:04;;;;;;;5.60;3.20;;;12.20;99.90;;;;;;5021175;28;20213;-75
2022/06/22 09:25:48;;;;;;;8.43;3.25;;;12.10;99.90;;;;;;5026029;28;20244;-74
2022/06/22 09:28:27;;;;;;;6.00;3.28;;;12.10;99.90;;;;;;5027136;28;20264;-75
2022/06/22 09:31:10;;;;;;;9.27;3.53;;;12.00;99.90;;;;;;5029902;28;20190;-75
2022/06/22 09:34:01;;;;;;;7.35;3.45;;;12.00;99.90;;;;;;5025886;28;20217;-75
2022/06/22 09:36:59;;;;;;;10.45;3.83;;;12.00;99.90;;;;;;5029408;28;20194;-74
2022/06/22 09:39:58;;;;;;;5.90;3.10;;;11.90;99.90;;;;;;5021980;28;20229;-75
2022/06/22 09:42:45;;;;;;;38.90;23.40;;;11.90;99.90;;;;;;5022191;28;20673;-75
2022/06/22 09:45:35;;;;;;;19.80;13.32;;;11.90;99.90;;;;;;5030082;28;20557;-74
2022/06/22 09:48:54;;;;;;;52.25;27.27;;;11.90;99.90;;;;;;5029280;28;20198;-75
2022/06/22 09:51:52;;;;;;;37.95;19.70;;;11.90;99.90;;;;;;4993790;28;20574;-76
2022/06/22 09:58:04;;;;;;;101.93;54.97;;;11.90;99.90;;;;;;5027381;28;20560;-76
2022/06/22 10:00:40;;;;;;;31.85;18.40;;;11.90;99.90;;;;;;5026879;28;20727;-75
2022/06/22 10:03:31;;;;;;;11.95;5.38;;;11.80;99.90;;;;;;5029475;28;20205;-75
2022/06/22 10:06:32;;;;;;;10.40;5.32;;;11.80;99.90;;;;;;5026788;28;20206;-76
2022/06/22 10:09:26;;;;;;;11.35;4.80;;;11.70;99.90;;;;;;5027833;28;20198;-76
2022/06/22 10:12:10;;;;;;;10.25;4.55;;;11.60;99.90;;;;;;5019884;28;20611;-75
2022/06/22 10:15:12;;;;;;;9.35;5.03;;;11.70;99.90;;;;;;5027986;28;20280;-75
2022/06/22 10:18:14;;;;;;;11.02;5.38;;;11.50;99.90;;;;;;5027145;28;20210;-75
2022/06/22 10:20:56;;;;;;;10.02;5.20;;;11.40;99.90;;;;;;5026672;28;20292;-74
2022/06/22 10:23:49;;;;;;;10.68;5.10;;;11.40;99.90;;;;;;5025255;28;20198;-76
2022/06/22 10:26:40;;;;;;;9.48;4.82;;;11.40;99.90;;;;;;5030493;28;20191;-76
2022/06/22 10:29:34;;;;;;;7.28;4.70;;;11.40;99.90;;;;;;5026444;28;20252;-81
2022/06/22 10:32:41;;;;;;;10.23;5.05;;;11.40;99.90;;;;;;5028008;28;20202;-77
2022/06/22 10:35:29;;;;;;;10.40;4.72;;;11.40;99.90;;;;;;5026701;28;20565;-76
2022/06/22 10:38:24;;;;;;;8.55;4.72;;;11.40;99.90;;;;;;5013230;28;20195;-77
2022/06/22 10:47:41;;;;;;;8.35;4.97;;;11.50;99.90;;;;;;5028189;28;20695;-75
2022/06/22 10:50:26;;;;;;;7.60;4.70;;;11.50;99.90;;;;;;5030321;28;20594;-74
2022/06/22 10:53:33;;;;;;;11.75;5.43;;;11.40;99.90;;;;;;5033551;28;20681;-74
2022/06/22 10:56:13;;;;;;;10.90;5.53;;;11.40;99.90;;;;;;4953955;28;20211;-75
2022/06/22 10:58:57;;;;;;;9.40;4.97;;;11.40;99.90;;;;;;5024190;28;20197;-74
2022/06/22 11:01:50;;;;;;;10.98;5.25;;;11.40;99.90;;;;;;5026978;28;20666;-75
2022/06/22 11:04:56;;;;;;;10.93;5.40;;;11.40;99.90;;;;;;5028937;28;20627;-74
2022/06/22 11:07:52;;;;;;;12.52;6.15;;;11.50;99.90;;;;;;5020322;28;20205;-75
2022/06/22 11:10:36;;;;;;;12.52;6.32;;;11.50;99.90;;;;;;5032381;28;20566;-74
2022/06/22 11:13:42;;;;;;;13.52;6.82;;;11.50;99.90;;;;;;5034350;28;20221;-74
2022/06/22 11:16:34;;;;;;;13.75;7.35;;;11.50;99.90;;;;;;5026589;28;20209;-74
2022/06/22 11:19:44;;;;;;;12.25;6.85;;;11.40;99.90;;;;;;5028106;28;20211;-74
2022/06/22 11:22:27;;;;;;;12.40;5.90;;;11.50;99.90;;;;;;5030869;28;20194;-74
2022/06/22 11:32:02;;;;;;;12.23;6.10;;;11.40;99.90;;;;;;4955057;28;20351;-74
2022/06/22 11:34:55;;;;;;;13.05;5.72;;;11.40;99.90;;;;;;5031459;28;20316;-74
2022/06/22 11:37:43;;;;;;;11.48;5.93;;;11.40;99.90;;;;;;5031237;28;20744;-74
2022/06/22 11:40:45;;;;;;;12.77;6.90;;;11.30;99.90;;;;;;5032868;28;20248;-75
2022/06/22 11:44:03;;;;;;;18.80;9.88;;;11.20;99.90;;;;;;5032649;28;20209;-74
2022/06/22 11:46:39;;;;;;;20.20;10.35;;;11.10;99.90;;;;;;5008286;28;20233;-74
2022/06/22 11:49:37;;;;;;;18.50;8.50;;;11.10;99.90;;;;;;5028939;28;20879;-75
2022/06/22 11:52:46;;;;;;;15.40;7.85;;;11.10;99.90;;;;;;5026199;28;20225;-76
2022/06/22 11:55:28;;;;;;;13.23;7.72;;;11.00;99.90;;;;;;5028071;28;20715;-75
2022/06/22 11:58:33;;;;;;;13.55;7.10;;;11.00;99.90;;;;;;5034097;28;20202;-75
2022/06/22 12:01:33;;;;;;;12.18;7.20;;;11.00;99.90;;;;;;5021710;28;20194;-76
2022/06/22 12:04:25;;;;;;;11.57;6.53;;;11.00;99.90;;;;;;5029081;28;20206;-75
2022/06/22 12:07:36;;;;;;;13.68;6.32;;;11.00;99.90;;;;;;5010578;28;20665;-75
2022/06/22 12:10:22;;;;;;;9.80;6.32;;;11.00;99.90;;;;;;4985059;28;20268;-74
2022/06/22 12:13:06;;;;;;;11.40;5.90;;;10.90;99.90;;;;;;5023882;28;20194;-80
2022/06/22 12:15:50;;;;;;;9.10;5.20;;;10.80;99.90;;;;;;5032295;28;20220;-76
2022/06/22 12:18:33;;;;;;;9.02;4.88;;;10.80;99.90;;;;;;5032217;28;20212;-76
2022/06/22 12:21:29;;;;;;;8.48;4.53;;;10.80;99.90;;;;;;5032745;28;20202;-79
2022/06/22 12:24:08;;;;;;;8.60;4.32;;;10.80;99.90;;;;;;5032528;28;20202;-77
2022/06/22 12:26:55;;;;;;;7.82;4.00;;;10.80;99.90;;;;;;5033272;28;20202;-75
2022/06/22 12:29:39;;;;;;;8.07;3.92;;;10.80;99.90;;;;;;5031251;28;20662;-77
2022/06/22 12:32:16;;;;;;;8.32;4.38;;;10.80;99.90;;;;;;5028328;28;20198;-77
2022/06/22 12:34:52;;;;;;;6.53;4.00;;;10.80;99.90;;;;;;5031582;28;20218;-79
2022/06/22 12:37:29;;;;;;;8.18;4.20;;;10.80;99.90;;;;;;5029894;28;20202;-76
2022/06/22 12:40:05;;;;;;;6.75;4.03;;;10.70;99.90;;;;;;5029899;28;20198;-79
2022/06/22 12:42:55;;;;;;;5.75;3.70;;;10.70;99.90;;;;;;5014314;28;20191;-77
2022/06/22 12:45:43;;;;;;;5.78;3.50;;;10.70;99.90;;;;;;5021986;28;20203;-75
2022/06/22 12:48:49;;;;;;;6.80;3.47;;;10.70;99.90;;;;;;5027667;28;20199;-78
2022/06/22 12:51:29;;;;;;;8.02;4.18;;;10.60;99.90;;;;;;5022410;28;20202;-77
2022/06/22 12:54:16;;;;;;;7.78;4.40;;;10.60;99.90;;;;;;5032619;28;20229;-75
2022/06/22 12:56:52;;;;;;;6.45;4.72;;;10.50;99.90;;;;;;5016878;28;20189;-77
2022/06/22 12:59:31;;;;;;;6.95;4.60;;;10.50;99.90;;;;;;5031484;28;20189;-77
2022/06/22 13:02:01;;;;;;;6.72;4.50;;;10.40;99.90;;;;;;5030279;28;20206;-76
2022/06/22 13:04:36;;;;;;;7.85;4.78;;;10.30;99.90;;;;;;5030180;28;20194;-80
2022/06/22 13:07:11;;;;;;;7.88;4.70;;;10.30;99.90;;;;;;5033498;28;20194;-78
2022/06/22 13:09:43;;;;;;;9.52;4.30;;;10.30;99.90;;;;;;5028484;28;20289;-77
2022/06/22 13:12:20;;;;;;;8.23;4.30;;;10.20;99.90;;;;;;5029976;28;20191;-77
2022/06/22 13:14:58;;;;;;;8.35;4.75;;;10.20;99.90;;;;;;5030707;28;20225;-82
2022/06/22 13:17:33;;;;;;;11.60;5.40;;;10.20;99.90;;;;;;5030014;28;20194;-76
2022/06/22 13:20:45;;;;;;;14.20;6.13;;;10.20;99.90;;;;;;5030329;28;20216;-75
2022/06/22 13:23:33;;;;;;;11.15;5.35;;;10.20;99.90;;;;;;4962377;28;20200;-76
2022/06/22 13:26:12;;;;;;;10.75;5.55;;;10.20;99.90;;;;;;4971882;28;20196;-76
2022/06/22 13:28:52;;;;;;;10.30;5.32;;;10.20;99.90;;;;;;5013899;28;20238;-77
2022/06/22 13:31:28;;;;;;;8.77;4.80;;;10.20;99.90;;;;;;5033404;28;20197;-75
2022/06/22 13:34:03;;;;;;;9.88;5.07;;;10.20;99.90;;;;;;5029865;28;20226;-77
2022/06/22 13:36:41;;;;;;;11.50;5.00;;;10.20;99.90;;;;;;5030067;28;20197;-76
2022/06/22 13:39:28;;;;;;;10.73;4.97;;;10.30;99.90;;;;;;5029505;28;20194;-76
2022/06/22 13:42:22;;;;;;;9.18;4.88;;;10.30;99.90;;;;;;5033188;28;20669;-77
2022/06/22 13:45:19;;;;;;;8.52;4.95;;;10.20;99.90;;;;;;5022445;28;20214;-83
2022/06/22 13:48:16;;;;;;;7.93;4.60;;;10.20;99.90;;;;;;5023413;28;20668;-76
2022/06/22 13:51:18;;;;;;;7.72;4.82;;;10.10;99.90;;;;;;5022949;28;20677;-76
2022/06/22 13:54:26;;;;;;;9.38;6.00;;;10.10;99.90;;;;;;5032156;28;20716;-75
2022/06/22 13:57:09;;;;;;;9.35;5.20;;;10.10;99.90;;;;;;5016483;28;20213;-76
2022/06/22 13:59:46;;;;;;;8.57;5.13;;;10.10;99.90;;;;;;5015930;28;20195;-75
2022/06/22 14:02:33;;;;;;;8.65;4.63;;;10.00;99.90;;;;;;5026404;28;20203;-75
2022/06/22 14:05:17;;;;;;;6.78;3.90;;;10.00;99.90;;;;;;5026312;28;20194;-75
2022/06/22 14:07:53;;;;;;;8.43;4.10;;;10.00;99.90;;;;;;5029264;28;20202;-76
2022/06/22 14:10:30;;;;;;;6.72;3.78;;;10.00;99.90;;;;;;5013425;28;20220;-76
2022/06/22 14:13:08;;;;;;;6.65;3.67;;;10.00;99.90;;;;;;5024742;28;20198;-77
2022/06/22 14:15:46;;;;;;;7.05;3.83;;;10.00;99.90;;;;;;5034054;28;20225;-76
2022/06/22 14:18:22;;;;;;;6.93;3.60;;;10.00;99.90;;;;;;5032623;28;20198;-76
2022/06/22 14:21:12;;;;;;;7.05;4.00;;;9.90;99.90;;;;;;5032063;28;20198;-75
2022/06/22 14:23:44;;;;;;;8.20;4.15;;;9.90;99.90;;;;;;5029445;28;20229;-77
2022/06/22 14:26:49;;;;;;;9.75;3.92;;;9.90;99.90;;;;;;5035080;28;20692;-76
2022/06/22 14:29:29;;;;;;;8.43;3.95;;;9.90;99.90;;;;;;4988097;28;20225;-76